sensor_id;sensor_type;location;lat;lon;timestamp;P1;durP1;ratioP1;P2;durP2;ratioP2
77542;SDS011;66669;52.100;5.104;2023-02-08T00:01:36;4.78;;;3.20;;
77542;SDS011;66669;52.100;5.104;2023-02-08T00:04:01;3.53;;;2.80;;
77542;SDS011;66669;52.100;5.104;2023-02-08T00:06:26;4.30;;;3.33;;
77542;SDS011;66669;52.100;5.104;2023-02-08T00:08:52;3.40;;;3.00;;
77542;SDS011;66669;52.100;5.104;2023-02-08T00:11:17;4.82;;;2.97;;
77542;SDS011;66669;52.100;5.104;2023-02-08T00:13:42;4.25;;;3.20;;
77542;SDS011;66669;52.100;5.104;2023-02-08T00:16:08;4.63;;;3.40;;
77542;SDS011;66669;52.100;5.104;2023-02-08T00:18:43;4.32;;;3.33;;
77542;SDS011;66669;52.100;5.104;2023-02-08T00:21:13;3.95;;;3.10;;
77542;SDS011;66669;52.100;5.104;2023-02-08T00:23:40;3.35;;;3.03;;
77542;SDS011;66669;52.100;5.104;2023-02-08T00:26:05;5.78;;;3.50;;
77542;SDS011;66669;52.100;5.104;2023-02-08T00:28:31;4.55;;;3.05;;
77542;SDS011;66669;52.100;5.104;2023-02-08T00:30:56;3.63;;;3.10;;
77542;SDS011;66669;52.100;5.104;2023-02-08T00:33:22;3.88;;;3.30;;
77542;SDS011;66669;52.100;5.104;2023-02-08T00:35:47;5.45;;;3.15;;
77542;SDS011;66669;52.100;5.104;2023-02-08T00:38:12;11.88;;;3.53;;
77542;SDS011;66669;52.100;5.104;2023-02-08T00:40:38;3.75;;;3.08;;
77542;SDS011;66669;52.100;5.104;2023-02-08T00:43:03;5.22;;;3.40;;
77542;SDS011;66669;52.100;5.104;2023-02-08T00:45:29;5.30;;;3.50;;
77542;SDS011;66669;52.100;5.104;2023-02-08T00:47:54;4.82;;;3.90;;
77542;SDS011;66669;52.100;5.104;2023-02-08T00:50:20;4.47;;;3.75;;
77542;SDS011;66669;52.100;5.104;2023-02-08T00:52:46;4.38;;;3.72;;
77542;SDS011;66669;52.100;5.104;2023-02-08T00:55:11;4.40;;;4.00;;
77542;SDS011;66669;52.100;5.104;2023-02-08T00:57:55;4.53;;;3.80;;
77542;SDS011;66669;52.100;5.104;2023-02-08T01:00:20;4.78;;;3.88;;
77542;SDS011;66669;52.100;5.104;2023-02-08T01:02:46;4.63;;;4.10;;
77542;SDS011;66669;52.100;5.104;2023-02-08T01:05:11;5.28;;;4.20;;
77542;SDS011;66669;52.100;5.104;2023-02-08T01:07:37;5.53;;;4.95;;
77542;SDS011;66669;52.100;5.104;2023-02-08T01:10:03;5.60;;;4.45;;
77542;SDS011;66669;52.100;5.104;2023-02-08T01:12:30;4.97;;;3.95;;
77542;SDS011;66669;52.100;5.104;2023-02-08T01:14:55;6.80;;;4.40;;
77542;SDS011;66669;52.100;5.104;2023-02-08T01:17:21;5.63;;;4.55;;
77542;SDS011;66669;52.100;5.104;2023-02-08T01:19:46;7.38;;;4.50;;
77542;SDS011;66669;52.100;5.104;2023-02-08T01:22:11;6.07;;;4.65;;
77542;SDS011;66669;52.100;5.104;2023-02-08T01:24:36;4.95;;;4.45;;
77542;SDS011;66669;52.100;5.104;2023-02-08T01:27:21;5.05;;;4.30;;
77542;SDS011;66669;52.100;5.104;2023-02-08T01:29:46;5.18;;;4.50;;
77542;SDS011;66669;52.100;5.104;2023-02-08T01:32:11;5.50;;;3.90;;
77542;SDS011;66669;52.100;5.104;2023-02-08T01:34:36;6.72;;;4.47;;
77542;SDS011;66669;52.100;5.104;2023-02-08T01:37:02;5.43;;;4.68;;
77542;SDS011;66669;52.100;5.104;2023-02-08T01:39:27;5.32;;;4.28;;
77542;SDS011;66669;52.100;5.104;2023-02-08T01:41:52;6.63;;;4.30;;
77542;SDS011;66669;52.100;5.104;2023-02-08T01:46:44;5.40;;;4.30;;
77542;SDS011;66669;52.100;5.104;2023-02-08T01:52:26;4.28;;;3.88;;
77542;SDS011;66669;52.100;5.104;2023-02-08T01:54:42;5.53;;;4.22;;
77542;SDS011;66669;52.100;5.104;2023-02-08T01:57:11;5.55;;;4.35;;
77542;SDS011;66669;52.100;5.104;2023-02-08T01:59:42;5.13;;;4.43;;
77542;SDS011;66669;52.100;5.104;2023-02-08T02:02:20;4.93;;;4.13;;
77542;SDS011;66669;52.100;5.104;2023-02-08T02:04:47;4.80;;;4.10;;
77542;SDS011;66669;52.100;5.104;2023-02-08T02:07:15;4.50;;;3.88;;
77542;SDS011;66669;52.100;5.104;2023-02-08T02:09:56;5.38;;;4.35;;
77542;SDS011;66669;52.100;5.104;2023-02-08T02:12:31;4.97;;;4.13;;
77542;SDS011;66669;52.100;5.104;2023-02-08T02:14:57;4.70;;;3.97;;
77542;SDS011;66669;52.100;5.104;2023-02-08T02:17:24;4.18;;;3.78;;
77542;SDS011;66669;52.100;5.104;2023-02-08T02:20:06;4.53;;;3.95;;
77542;SDS011;66669;52.100;5.104;2023-02-08T02:22:45;4.47;;;3.83;;
77542;SDS011;66669;52.100;5.104;2023-02-08T02:25:49;4.63;;;3.95;;
77542;SDS011;66669;52.100;5.104;2023-02-08T02:28:27;4.82;;;3.88;;
77542;SDS011;66669;52.100;5.104;2023-02-08T02:34:01;4.18;;;3.78;;
77542;SDS011;66669;52.100;5.104;2023-02-08T02:45:49;4.32;;;3.60;;
77542;SDS011;66669;52.100;5.104;2023-02-08T02:48:29;4.50;;;3.83;;
77542;SDS011;66669;52.100;5.104;2023-02-08T02:53:52;4.32;;;3.92;;
77542;SDS011;66669;52.100;5.104;2023-02-08T02:56:24;5.20;;;4.22;;
77542;SDS011;66669;52.100;5.104;2023-02-08T02:58:55;5.57;;;4.10;;
77542;SDS011;66669;52.100;5.104;2023-02-08T03:01:26;3.97;;;3.58;;
77542;SDS011;66669;52.100;5.104;2023-02-08T03:03:54;5.43;;;4.00;;
77542;SDS011;66669;52.100;5.104;2023-02-08T03:07:10;4.60;;;3.95;;
77542;SDS011;66669;52.100;5.104;2023-02-08T03:11:37;4.47;;;4.05;;
77542;SDS011;66669;52.100;5.104;2023-02-08T03:14:13;4.20;;;3.70;;
77542;SDS011;66669;52.100;5.104;2023-02-08T03:16:59;4.97;;;4.03;;
77542;SDS011;66669;52.100;5.104;2023-02-08T03:19:38;4.18;;;3.78;;
77542;SDS011;66669;52.100;5.104;2023-02-08T03:22:35;6.25;;;4.45;;
77542;SDS011;66669;52.100;5.104;2023-02-08T03:25:16;4.63;;;3.90;;
77542;SDS011;66669;52.100;5.104;2023-02-08T03:28:19;4.22;;;3.83;;
77542;SDS011;66669;52.100;5.104;2023-02-08T03:33:24;4.00;;;3.60;;
77542;SDS011;66669;52.100;5.104;2023-02-08T03:36:07;4.28;;;3.85;;
77542;SDS011;66669;52.100;5.104;2023-02-08T03:38:44;4.15;;;3.70;;
77542;SDS011;66669;52.100;5.104;2023-02-08T03:41:14;4.05;;;3.60;;
77542;SDS011;66669;52.100;5.104;2023-02-08T03:43:44;5.40;;;3.95;;
77542;SDS011;66669;52.100;5.104;2023-02-08T03:49:02;4.25;;;3.83;;
77542;SDS011;66669;52.100;5.104;2023-02-08T03:51:32;3.90;;;3.42;;
77542;SDS011;66669;52.100;5.104;2023-02-08T03:54:00;4.50;;;3.92;;
77542;SDS011;66669;52.100;5.104;2023-02-08T03:57:15;4.32;;;3.92;;
77542;SDS011;66669;52.100;5.104;2023-02-08T03:59:24;5.50;;;3.85;;
77542;SDS011;66669;52.100;5.104;2023-02-08T04:01:58;4.53;;;3.90;;
77542;SDS011;66669;52.100;5.104;2023-02-08T04:04:28;4.38;;;3.95;;
77542;SDS011;66669;52.100;5.104;2023-02-08T04:06:58;4.32;;;3.60;;
77542;SDS011;66669;52.100;5.104;2023-02-08T04:09:23;4.55;;;4.15;;
77542;SDS011;66669;52.100;5.104;2023-02-08T04:11:49;4.22;;;3.83;;
77542;SDS011;66669;52.100;5.104;2023-02-08T04:14:14;4.10;;;3.67;;
77542;SDS011;66669;52.100;5.104;2023-02-08T04:16:39;4.30;;;3.78;;
77542;SDS011;66669;52.100;5.104;2023-02-08T04:19:05;4.20;;;3.70;;
77542;SDS011;66669;52.100;5.104;2023-02-08T04:21:30;5.60;;;4.13;;
77542;SDS011;66669;52.100;5.104;2023-02-08T04:23:55;4.15;;;3.75;;
77542;SDS011;66669;52.100;5.104;2023-02-08T04:26:21;3.97;;;3.53;;
77542;SDS011;66669;52.100;5.104;2023-02-08T04:28:46;4.30;;;3.83;;
77542;SDS011;66669;52.100;5.104;2023-02-08T04:31:12;4.78;;;3.83;;
77542;SDS011;66669;52.100;5.104;2023-02-08T04:33:37;4.45;;;3.75;;
77542;SDS011;66669;52.100;5.104;2023-02-08T04:36:02;4.75;;;4.18;;
77542;SDS011;66669;52.100;5.104;2023-02-08T04:38:28;4.18;;;3.63;;
77542;SDS011;66669;52.100;5.104;2023-02-08T04:40:53;4.20;;;3.80;;
77542;SDS011;66669;52.100;5.104;2023-02-08T04:43:18;4.05;;;3.53;;
77542;SDS011;66669;52.100;5.104;2023-02-08T04:45:44;4.40;;;4.00;;
77542;SDS011;66669;52.100;5.104;2023-02-08T04:48:09;4.40;;;4.00;;
77542;SDS011;66669;52.100;5.104;2023-02-08T04:50:34;4.47;;;3.90;;
77542;SDS011;66669;52.100;5.104;2023-02-08T04:53:00;4.25;;;3.67;;
77542;SDS011;66669;52.100;5.104;2023-02-08T04:55:25;4.20;;;3.80;;
77542;SDS011;66669;52.100;5.104;2023-02-08T04:57:50;4.70;;;4.10;;
77542;SDS011;66669;52.100;5.104;2023-02-08T05:00:16;4.05;;;3.65;;
77542;SDS011;66669;52.100;5.104;2023-02-08T05:02:41;5.32;;;3.80;;
77542;SDS011;66669;52.100;5.104;2023-02-08T05:05:07;4.32;;;3.90;;
77542;SDS011;66669;52.100;5.104;2023-02-08T05:07:51;4.28;;;3.88;;
77542;SDS011;66669;52.100;5.104;2023-02-08T05:10:17;4.05;;;3.50;;
77542;SDS011;66669;52.100;5.104;2023-02-08T05:12:42;4.57;;;4.05;;
77542;SDS011;66669;52.100;5.104;2023-02-08T05:15:08;4.00;;;3.60;;
77542;SDS011;66669;52.100;5.104;2023-02-08T05:17:33;4.22;;;3.42;;
77542;SDS011;66669;52.100;5.104;2023-02-08T05:19:59;4.40;;;4.00;;
77542;SDS011;66669;52.100;5.104;2023-02-08T05:22:24;5.15;;;4.00;;
77542;SDS011;66669;52.100;5.104;2023-02-08T05:24:50;4.10;;;3.70;;
77542;SDS011;66669;52.100;5.104;2023-02-08T05:27:15;4.82;;;3.75;;
77542;SDS011;66669;52.100;5.104;2023-02-08T05:29:40;4.45;;;3.95;;
77542;SDS011;66669;52.100;5.104;2023-02-08T05:32:07;4.07;;;3.67;;
77542;SDS011;66669;52.100;5.104;2023-02-08T05:34:33;4.57;;;4.15;;
77542;SDS011;66669;52.100;5.104;2023-02-08T05:36:58;4.45;;;4.00;;
77542;SDS011;66669;52.100;5.104;2023-02-08T05:39:24;4.55;;;3.97;;
77542;SDS011;66669;52.100;5.104;2023-02-08T05:41:49;4.65;;;4.03;;
77542;SDS011;66669;52.100;5.104;2023-02-08T05:44:14;4.43;;;3.65;;
77542;SDS011;66669;52.100;5.104;2023-02-08T05:46:40;4.38;;;3.80;;
77542;SDS011;66669;52.100;5.104;2023-02-08T05:49:05;4.10;;;3.70;;
77542;SDS011;66669;52.100;5.104;2023-02-08T05:51:30;3.95;;;3.55;;
77542;SDS011;66669;52.100;5.104;2023-02-08T05:53:56;4.00;;;3.60;;
77542;SDS011;66669;52.100;5.104;2023-02-08T05:56:21;4.43;;;4.00;;
77542;SDS011;66669;52.100;5.104;2023-02-08T05:58:46;4.30;;;3.80;;
77542;SDS011;66669;52.100;5.104;2023-02-08T06:01:12;4.00;;;3.60;;
77542;SDS011;66669;52.100;5.104;2023-02-08T06:03:38;5.50;;;4.20;;
77542;SDS011;66669;52.100;5.104;2023-02-08T06:06:04;4.57;;;4.15;;
77542;SDS011;66669;52.100;5.104;2023-02-08T06:08:31;4.65;;;4.15;;
77542;SDS011;66669;52.100;5.104;2023-02-08T06:10:56;4.57;;;4.00;;
77542;SDS011;66669;52.100;5.104;2023-02-08T06:13:22;5.53;;;4.15;;
77542;SDS011;66669;52.100;5.104;2023-02-08T06:15:47;5.28;;;4.30;;
77542;SDS011;66669;52.100;5.104;2023-02-08T06:18:13;5.15;;;4.30;;
77542;SDS011;66669;52.100;5.104;2023-02-08T06:20:38;5.93;;;4.28;;
77542;SDS011;66669;52.100;5.104;2023-02-08T06:23:04;3.95;;;3.55;;
77542;SDS011;66669;52.100;5.104;2023-02-08T06:25:29;4.47;;;3.90;;
77542;SDS011;66669;52.100;5.104;2023-02-08T06:27:54;4.70;;;4.20;;
77542;SDS011;66669;52.100;5.104;2023-02-08T06:30:20;4.60;;;4.20;;
77542;SDS011;66669;52.100;5.104;2023-02-08T06:32:45;5.05;;;4.13;;
77542;SDS011;66669;52.100;5.104;2023-02-08T06:35:11;4.30;;;3.90;;
77542;SDS011;66669;52.100;5.104;2023-02-08T06:37:36;4.63;;;4.10;;
77542;SDS011;66669;52.100;5.104;2023-02-08T06:40:03;4.63;;;3.90;;
77542;SDS011;66669;52.100;5.104;2023-02-08T06:42:29;4.40;;;4.00;;
77542;SDS011;66669;52.100;5.104;2023-02-08T06:44:54;4.53;;;4.00;;
77542;SDS011;66669;52.100;5.104;2023-02-08T06:47:22;4.63;;;4.15;;
77542;SDS011;66669;52.100;5.104;2023-02-08T06:49:48;4.78;;;3.65;;
77542;SDS011;66669;52.100;5.104;2023-02-08T06:52:14;5.75;;;4.20;;
77542;SDS011;66669;52.100;5.104;2023-02-08T06:54:39;4.45;;;4.05;;
77542;SDS011;66669;52.100;5.104;2023-02-08T06:57:04;4.60;;;4.20;;
77542;SDS011;66669;52.100;5.104;2023-02-08T06:59:32;4.30;;;3.90;;
77542;SDS011;66669;52.100;5.104;2023-02-08T07:01:57;5.88;;;4.00;;
77542;SDS011;66669;52.100;5.104;2023-02-08T07:04:41;5.18;;;4.30;;
77542;SDS011;66669;52.100;5.104;2023-02-08T07:07:07;4.35;;;3.72;;
77542;SDS011;66669;52.100;5.104;2023-02-08T07:09:33;4.70;;;4.20;;
77542;SDS011;66669;52.100;5.104;2023-02-08T07:12:00;4.68;;;4.05;;
77542;SDS011;66669;52.100;5.104;2023-02-08T07:14:36;5.32;;;4.10;;
77542;SDS011;66669;52.100;5.104;2023-02-08T07:17:04;4.38;;;3.90;;
77542;SDS011;66669;52.100;5.104;2023-02-08T07:19:29;4.28;;;3.80;;
77542;SDS011;66669;52.100;5.104;2023-02-08T07:21:55;4.53;;;4.13;;
77542;SDS011;66669;52.100;5.104;2023-02-08T07:24:21;4.40;;;4.00;;
77542;SDS011;66669;52.100;5.104;2023-02-08T07:26:48;5.13;;;4.13;;
77542;SDS011;66669;52.100;5.104;2023-02-08T07:29:13;5.25;;;4.57;;
77542;SDS011;66669;52.100;5.104;2023-02-08T07:31:39;4.43;;;4.00;;
77542;SDS011;66669;52.100;5.104;2023-02-08T07:34:04;4.10;;;3.70;;
77542;SDS011;66669;52.100;5.104;2023-02-08T07:36:29;5.03;;;4.18;;
77542;SDS011;66669;52.100;5.104;2023-02-08T07:38:55;4.13;;;3.72;;
77542;SDS011;66669;52.100;5.104;2023-02-08T07:41:20;4.15;;;3.75;;
77542;SDS011;66669;52.100;5.104;2023-02-08T07:43:46;5.10;;;4.38;;
77542;SDS011;66669;52.100;5.104;2023-02-08T07:46:12;4.40;;;3.88;;
77542;SDS011;66669;52.100;5.104;2023-02-08T07:48:42;4.65;;;3.88;;
77542;SDS011;66669;52.100;5.104;2023-02-08T07:51:08;4.40;;;4.00;;
77542;SDS011;66669;52.100;5.104;2023-02-08T07:53:34;4.93;;;4.40;;
77542;SDS011;66669;52.100;5.104;2023-02-08T07:56:00;4.78;;;4.10;;
77542;SDS011;66669;52.100;5.104;2023-02-08T07:58:25;4.70;;;4.10;;
77542;SDS011;66669;52.100;5.104;2023-02-08T08:00:51;4.55;;;3.83;;
77542;SDS011;66669;52.100;5.104;2023-02-08T08:03:16;4.57;;;3.97;;
77542;SDS011;66669;52.100;5.104;2023-02-08T08:05:42;6.20;;;4.15;;
77542;SDS011;66669;52.100;5.104;2023-02-08T08:08:08;4.80;;;4.20;;
77542;SDS011;66669;52.100;5.104;2023-02-08T08:10:34;4.55;;;4.15;;
77542;SDS011;66669;52.100;5.104;2023-02-08T08:12:59;4.97;;;4.30;;
77542;SDS011;66669;52.100;5.104;2023-02-08T08:15:25;5.45;;;4.00;;
77542;SDS011;66669;52.100;5.104;2023-02-08T08:17:51;4.20;;;3.80;;
77542;SDS011;66669;52.100;5.104;2023-02-08T08:20:17;5.15;;;4.03;;
77542;SDS011;66669;52.100;5.104;2023-02-08T08:22:42;4.55;;;3.70;;
77542;SDS011;66669;52.100;5.104;2023-02-08T08:25:07;3.90;;;3.40;;
77542;SDS011;66669;52.100;5.104;2023-02-08T08:27:33;4.18;;;3.67;;
77542;SDS011;66669;52.100;5.104;2023-02-08T08:29:59;4.38;;;3.70;;
77542;SDS011;66669;52.100;5.104;2023-02-08T08:32:24;3.97;;;3.58;;
77542;SDS011;66669;52.100;5.104;2023-02-08T08:34:50;4.45;;;3.88;;
77542;SDS011;66669;52.100;5.104;2023-02-08T08:37:15;4.07;;;3.75;;
77542;SDS011;66669;52.100;5.104;2023-02-08T08:39:40;4.90;;;4.05;;
77542;SDS011;66669;52.100;5.104;2023-02-08T08:42:06;4.53;;;4.07;;
77542;SDS011;66669;52.100;5.104;2023-02-08T08:44:31;4.97;;;4.07;;
77542;SDS011;66669;52.100;5.104;2023-02-08T08:46:57;4.32;;;3.70;;
77542;SDS011;66669;52.100;5.104;2023-02-08T08:49:24;4.40;;;3.90;;
77542;SDS011;66669;52.100;5.104;2023-02-08T08:51:51;4.38;;;3.97;;
77542;SDS011;66669;52.100;5.104;2023-02-08T08:54:17;4.70;;;4.00;;
77542;SDS011;66669;52.100;5.104;2023-02-08T08:56:43;4.65;;;4.03;;
77542;SDS011;66669;52.100;5.104;2023-02-08T08:59:08;4.45;;;4.05;;
77542;SDS011;66669;52.100;5.104;2023-02-08T09:01:33;5.18;;;4.38;;
77542;SDS011;66669;52.100;5.104;2023-02-08T09:03:59;4.15;;;3.75;;
77542;SDS011;66669;52.100;5.104;2023-02-08T09:06:24;5.40;;;3.72;;
77542;SDS011;66669;52.100;5.104;2023-02-08T09:08:50;4.30;;;3.67;;
77542;SDS011;66669;52.100;5.104;2023-02-08T09:11:15;3.92;;;3.40;;
77542;SDS011;66669;52.100;5.104;2023-02-08T09:13:40;7.10;;;3.83;;
77542;SDS011;66669;52.100;5.104;2023-02-08T09:18:32;8.57;;;3.60;;
77542;SDS011;66669;52.100;5.104;2023-02-08T09:20:57;5.53;;;3.35;;
77542;SDS011;66669;52.100;5.104;2023-02-08T09:23:23;5.25;;;3.42;;
77542;SDS011;66669;52.100;5.104;2023-02-08T09:25:48;8.48;;;3.22;;
77542;SDS011;66669;52.100;5.104;2023-02-08T09:28:14;8.10;;;3.60;;
77542;SDS011;66669;52.100;5.104;2023-02-08T09:30:39;12.50;;;4.15;;
77542;SDS011;66669;52.100;5.104;2023-02-08T09:33:04;8.48;;;3.70;;
77542;SDS011;66669;52.100;5.104;2023-02-08T09:35:30;5.22;;;3.70;;
77542;SDS011;66669;52.100;5.104;2023-02-08T09:37:55;5.45;;;3.60;;
77542;SDS011;66669;52.100;5.104;2023-02-08T09:40:26;5.13;;;3.60;;
77542;SDS011;66669;52.100;5.104;2023-02-08T09:43:11;6.80;;;3.83;;
77542;SDS011;66669;52.100;5.104;2023-02-08T09:46:27;6.10;;;3.90;;
77542;SDS011;66669;52.100;5.104;2023-02-08T09:48:41;6.10;;;4.13;;
77542;SDS011;66669;52.100;5.104;2023-02-08T09:53:56;4.85;;;3.92;;
77542;SDS011;66669;52.100;5.104;2023-02-08T09:56:29;5.82;;;3.63;;
77542;SDS011;66669;52.100;5.104;2023-02-08T09:59:00;6.43;;;4.28;;
77542;SDS011;66669;52.100;5.104;2023-02-08T10:01:30;4.93;;;3.80;;
77542;SDS011;66669;52.100;5.104;2023-02-08T10:03:58;5.95;;;3.80;;
77542;SDS011;66669;52.100;5.104;2023-02-08T10:06:43;6.38;;;4.15;;
77542;SDS011;66669;52.100;5.104;2023-02-08T10:09:10;7.90;;;4.00;;
77542;SDS011;66669;52.100;5.104;2023-02-08T10:17:40;8.50;;;3.85;;
77542;SDS011;66669;52.100;5.104;2023-02-08T10:36:34;6.20;;;3.70;;
77542;SDS011;66669;52.100;5.104;2023-02-08T10:39:09;5.40;;;3.10;;
77542;SDS011;66669;52.100;5.104;2023-02-08T10:41:40;5.68;;;3.70;;
77542;SDS011;66669;52.100;5.104;2023-02-08T10:44:17;4.22;;;3.22;;
77542;SDS011;66669;52.100;5.104;2023-02-08T10:47:12;4.10;;;3.28;;
77542;SDS011;66669;52.100;5.104;2023-02-08T10:49:56;4.40;;;3.08;;
77542;SDS011;66669;52.100;5.104;2023-02-08T10:52:24;3.97;;;3.20;;
77542;SDS011;66669;52.100;5.104;2023-02-08T10:54:49;3.80;;;2.80;;
77542;SDS011;66669;52.100;5.104;2023-02-08T10:57:20;5.57;;;2.97;;
77542;SDS011;66669;52.100;5.104;2023-02-08T10:59:50;5.53;;;3.28;;
77542;SDS011;66669;52.100;5.104;2023-02-08T11:02:30;4.03;;;3.05;;
77542;SDS011;66669;52.100;5.104;2023-02-08T11:07:31;3.85;;;3.20;;
77542;SDS011;66669;52.100;5.104;2023-02-08T11:12:54;4.05;;;3.03;;
77542;SDS011;66669;52.100;5.104;2023-02-08T11:15:47;3.13;;;2.60;;
77542;SDS011;66669;52.100;5.104;2023-02-08T11:21:01;3.30;;;2.75;;
77542;SDS011;66669;52.100;5.104;2023-02-08T11:23:47;3.20;;;2.63;;
77542;SDS011;66669;52.100;5.104;2023-02-08T11:26:17;2.95;;;2.63;;
77542;SDS011;66669;52.100;5.104;2023-02-08T11:31:31;3.08;;;2.65;;
77542;SDS011;66669;52.100;5.104;2023-02-08T11:36:30;3.20;;;2.50;;
77542;SDS011;66669;52.100;5.104;2023-02-08T11:38:57;3.97;;;2.92;;
77542;SDS011;66669;52.100;5.104;2023-02-08T11:41:26;3.25;;;2.40;;
77542;SDS011;66669;52.100;5.104;2023-02-08T11:43:56;3.33;;;2.55;;
77542;SDS011;66669;52.100;5.104;2023-02-08T11:46:31;3.50;;;2.70;;
77542;SDS011;66669;52.100;5.104;2023-02-08T11:49:00;3.63;;;2.80;;
77542;SDS011;66669;52.100;5.104;2023-02-08T11:53:52;3.13;;;2.63;;
77542;SDS011;66669;52.100;5.104;2023-02-08T11:56:22;2.63;;;2.20;;
77542;SDS011;66669;52.100;5.104;2023-02-08T11:58:55;3.00;;;2.58;;
77542;SDS011;66669;52.100;5.104;2023-02-08T12:01:23;2.58;;;2.20;;
77542;SDS011;66669;52.100;5.104;2023-02-08T12:03:51;3.65;;;2.50;;
77542;SDS011;66669;52.100;5.104;2023-02-08T12:06:21;2.50;;;2.25;;
77542;SDS011;66669;52.100;5.104;2023-02-08T12:14:19;3.47;;;2.80;;
77542;SDS011;66669;52.100;5.104;2023-02-08T12:22:15;2.53;;;1.90;;
77542;SDS011;66669;52.100;5.104;2023-02-08T12:25:18;3.10;;;2.30;;
77542;SDS011;66669;52.100;5.104;2023-02-08T12:27:47;3.10;;;2.40;;
77542;SDS011;66669;52.100;5.104;2023-02-08T12:30:35;2.70;;;2.28;;
77542;SDS011;66669;52.100;5.104;2023-02-08T12:36:07;3.22;;;2.45;;
77542;SDS011;66669;52.100;5.104;2023-02-08T12:45:05;2.50;;;2.17;;
77542;SDS011;66669;52.100;5.104;2023-02-08T12:53:27;3.17;;;2.60;;
77542;SDS011;66669;52.100;5.104;2023-02-08T12:55:59;3.28;;;2.58;;
77542;SDS011;66669;52.100;5.104;2023-02-08T12:58:30;2.58;;;2.35;;
77542;SDS011;66669;52.100;5.104;2023-02-08T13:01:06;3.50;;;2.50;;
77542;SDS011;66669;52.100;5.104;2023-02-08T13:03:43;2.53;;;2.33;;
77542;SDS011;66669;52.100;5.104;2023-02-08T13:06:17;2.50;;;2.10;;
77542;SDS011;66669;52.100;5.104;2023-02-08T13:08:49;3.72;;;2.53;;
77542;SDS011;66669;52.100;5.104;2023-02-08T13:14:05;2.90;;;2.50;;
77542;SDS011;66669;52.100;5.104;2023-02-08T13:16:38;3.28;;;2.28;;
77542;SDS011;66669;52.100;5.104;2023-02-08T13:21:48;2.92;;;2.40;;
77542;SDS011;66669;52.100;5.104;2023-02-08T13:24:36;2.30;;;2.00;;
77542;SDS011;66669;52.100;5.104;2023-02-08T13:27:03;2.40;;;2.20;;
77542;SDS011;66669;52.100;5.104;2023-02-08T13:29:32;2.72;;;2.08;;
77542;SDS011;66669;52.100;5.104;2023-02-08T13:32:02;2.72;;;2.00;;
77542;SDS011;66669;52.100;5.104;2023-02-08T13:34:43;2.45;;;2.22;;
77542;SDS011;66669;52.100;5.104;2023-02-08T13:37:22;2.85;;;2.10;;
77542;SDS011;66669;52.100;5.104;2023-02-08T13:39:56;2.00;;;1.80;;
77542;SDS011;66669;52.100;5.104;2023-02-08T13:42:29;3.53;;;2.20;;
77542;SDS011;66669;52.100;5.104;2023-02-08T13:45:07;2.95;;;2.10;;
77542;SDS011;66669;52.100;5.104;2023-02-08T13:47:45;2.67;;;2.13;;
77542;SDS011;66669;52.100;5.104;2023-02-08T13:53:05;2.45;;;2.00;;
77542;SDS011;66669;52.100;5.104;2023-02-08T14:03:28;2.22;;;1.83;;
77542;SDS011;66669;52.100;5.104;2023-02-08T14:05:55;2.10;;;1.80;;
77542;SDS011;66669;52.100;5.104;2023-02-08T14:11:11;3.15;;;2.17;;
77542;SDS011;66669;52.100;5.104;2023-02-08T14:18:55;1.95;;;1.75;;
77542;SDS011;66669;52.100;5.104;2023-02-08T14:21:33;2.47;;;2.08;;
77542;SDS011;66669;52.100;5.104;2023-02-08T14:24:07;2.10;;;1.70;;
77542;SDS011;66669;52.100;5.104;2023-02-08T14:26:45;2.28;;;1.75;;
77542;SDS011;66669;52.100;5.104;2023-02-08T14:29:15;2.20;;;1.70;;
77542;SDS011;66669;52.100;5.104;2023-02-08T14:31:46;2.17;;;1.85;;
77542;SDS011;66669;52.100;5.104;2023-02-08T14:34:25;2.85;;;1.90;;
77542;SDS011;66669;52.100;5.104;2023-02-08T14:37:00;2.40;;;1.92;;
77542;SDS011;66669;52.100;5.104;2023-02-08T14:39:27;2.55;;;2.05;;
77542;SDS011;66669;52.100;5.104;2023-02-08T14:42:03;2.38;;;1.67;;
77542;SDS011;66669;52.100;5.104;2023-02-08T14:49:50;2.25;;;1.88;;
77542;SDS011;66669;52.100;5.104;2023-02-08T14:52:25;2.28;;;1.90;;
77542;SDS011;66669;52.100;5.104;2023-02-08T14:54:53;2.15;;;1.70;;
77542;SDS011;66669;52.100;5.104;2023-02-08T14:57:30;1.77;;;1.38;;
77542;SDS011;66669;52.100;5.104;2023-02-08T14:59:58;2.20;;;1.98;;
77542;SDS011;66669;52.100;5.104;2023-02-08T15:02:26;2.23;;;1.77;;
77542;SDS011;66669;52.100;5.104;2023-02-08T15:04:56;2.33;;;1.83;;
77542;SDS011;66669;52.100;5.104;2023-02-08T15:10:12;2.47;;;1.70;;
77542;SDS011;66669;52.100;5.104;2023-02-08T15:12:39;2.00;;;1.70;;
77542;SDS011;66669;52.100;5.104;2023-02-08T15:15:25;1.90;;;1.70;;
77542;SDS011;66669;52.100;5.104;2023-02-08T15:17:53;2.03;;;1.80;;
77542;SDS011;66669;52.100;5.104;2023-02-08T15:20:21;1.92;;;1.55;;
77542;SDS011;66669;52.100;5.104;2023-02-08T15:22:55;2.58;;;1.70;;
77542;SDS011;66669;52.100;5.104;2023-02-08T15:25:23;2.53;;;1.50;;
77542;SDS011;66669;52.100;5.104;2023-02-08T15:27:55;1.70;;;1.40;;
77542;SDS011;66669;52.100;5.104;2023-02-08T15:30:32;1.95;;;1.73;;
77542;SDS011;66669;52.100;5.104;2023-02-08T15:33:00;1.95;;;1.52;;
77542;SDS011;66669;52.100;5.104;2023-02-08T15:35:26;2.08;;;1.70;;
77542;SDS011;66669;52.100;5.104;2023-02-08T15:37:55;1.77;;;1.60;;
77542;SDS011;66669;52.100;5.104;2023-02-08T15:42:52;2.78;;;1.85;;
77542;SDS011;66669;52.100;5.104;2023-02-08T15:45:22;2.22;;;1.63;;
77542;SDS011;66669;52.100;5.104;2023-02-08T15:47:49;2.53;;;1.60;;
77542;SDS011;66669;52.100;5.104;2023-02-08T15:50:18;2.17;;;1.73;;
77542;SDS011;66669;52.100;5.104;2023-02-08T15:52:45;1.92;;;1.73;;
77542;SDS011;66669;52.100;5.104;2023-02-08T15:55:15;2.03;;;1.65;;
77542;SDS011;66669;52.100;5.104;2023-02-08T15:57:58;1.90;;;1.70;;
77542;SDS011;66669;52.100;5.104;2023-02-08T16:00:31;1.90;;;1.60;;
77542;SDS011;66669;52.100;5.104;2023-02-08T16:03:03;2.22;;;1.90;;
77542;SDS011;66669;52.100;5.104;2023-02-08T16:05:32;2.33;;;1.80;;
77542;SDS011;66669;52.100;5.104;2023-02-08T16:07:59;2.33;;;1.67;;
77542;SDS011;66669;52.100;5.104;2023-02-08T16:10:31;1.98;;;1.83;;
77542;SDS011;66669;52.100;5.104;2023-02-08T16:13:04;1.98;;;1.65;;
77542;SDS011;66669;52.100;5.104;2023-02-08T16:15:40;2.53;;;1.80;;
77542;SDS011;66669;52.100;5.104;2023-02-08T16:21:04;2.10;;;1.67;;
77542;SDS011;66669;52.100;5.104;2023-02-08T16:23:46;3.50;;;1.67;;
77542;SDS011;66669;52.100;5.104;2023-02-08T16:26:23;1.67;;;1.55;;
77542;SDS011;66669;52.100;5.104;2023-02-08T16:28:52;2.78;;;1.67;;
77542;SDS011;66669;52.100;5.104;2023-02-08T16:31:26;1.73;;;1.60;;
77542;SDS011;66669;52.100;5.104;2023-02-08T16:34:04;3.38;;;1.80;;
77542;SDS011;66669;52.100;5.104;2023-02-08T16:36:32;2.58;;;1.92;;
77542;SDS011;66669;52.100;5.104;2023-02-08T16:42:17;2.00;;;1.70;;
77542;SDS011;66669;52.100;5.104;2023-02-08T16:44:56;3.65;;;2.28;;
77542;SDS011;66669;52.100;5.104;2023-02-08T16:47:25;2.33;;;1.60;;
77542;SDS011;66669;52.100;5.104;2023-02-08T16:50:03;2.30;;;1.90;;
77542;SDS011;66669;52.100;5.104;2023-02-08T16:52:29;2.63;;;2.05;;
77542;SDS011;66669;52.100;5.104;2023-02-08T16:54:55;2.10;;;1.70;;
77542;SDS011;66669;52.100;5.104;2023-02-08T16:57:23;2.55;;;2.03;;
77542;SDS011;66669;52.100;5.104;2023-02-08T17:00:14;2.47;;;1.80;;
77542;SDS011;66669;52.100;5.104;2023-02-08T17:02:43;2.00;;;1.60;;
77542;SDS011;66669;52.100;5.104;2023-02-08T17:05:09;2.72;;;1.80;;
77542;SDS011;66669;52.100;5.104;2023-02-08T17:07:34;2.65;;;1.92;;
77542;SDS011;66669;52.100;5.104;2023-02-08T17:10:01;2.58;;;1.90;;
77542;SDS011;66669;52.100;5.104;2023-02-08T17:12:27;2.75;;;1.73;;
77542;SDS011;66669;52.100;5.104;2023-02-08T17:14:52;2.70;;;2.00;;
77542;SDS011;66669;52.100;5.104;2023-02-08T17:17:17;2.92;;;1.75;;
77542;SDS011;66669;52.100;5.104;2023-02-08T17:19:43;2.08;;;1.80;;
77542;SDS011;66669;52.100;5.104;2023-02-08T17:22:10;3.30;;;2.35;;